PSLKS SBPS-SBMK
Flight info
| Callsign | PSLKS |
|---|---|
| Flight time | N/A |
| Altitude | 40000 |
| Route | MUKOS DCT UBNED |
| Aircraft | C700/M-SBDGHM1RWXY/LB2 |
Departure
| Time | N/A |
|---|---|
| Airport | Porto Seguro International Airport (SBPS) |
Arrival
| Time | 2026-05-04 01:14 |
|---|---|
| Airport | Mário Ribeiro Airport (SBMK) |
| Time | Latitude | Longitude | Altitude | Speed | Heading |
|---|---|---|---|---|---|
| 2026-05-04 00:41 | -16.39905 | -40.67038 | 40020 ft | 497 kts | 263° |
| 2026-05-04 00:41 | -16.40299 | -40.70612 | 40021 ft | 498 kts | 263° |
| 2026-05-04 00:42 | -16.41086 | -40.77768 | 40022 ft | 496 kts | 263° |
| 2026-05-04 00:42 | -16.41868 | -40.84899 | 40018 ft | 494 kts | 263° |
| 2026-05-04 00:43 | -16.42644 | -40.92000 | 40017 ft | 493 kts | 263° |
| 2026-05-04 00:43 | -16.43416 | -40.99084 | 40016 ft | 492 kts | 263° |
| 2026-05-04 00:44 | -16.44182 | -41.06125 | 40017 ft | 494 kts | 263° |
| 2026-05-04 00:44 | -16.44953 | -41.13253 | 40019 ft | 496 kts | 263° |
| 2026-05-04 00:45 | -16.45725 | -41.20403 | 40021 ft | 497 kts | 263° |
| 2026-05-04 00:45 | -16.46496 | -41.27564 | 40023 ft | 497 kts | 263° |
| 2026-05-04 00:46 | -16.47263 | -41.34718 | 40021 ft | 495 kts | 263° |
| 2026-05-04 00:46 | -16.48025 | -41.41843 | 40020 ft | 494 kts | 263° |
| 2026-05-04 00:47 | -16.48781 | -41.48941 | 40017 ft | 492 kts | 263° |
| 2026-05-04 00:47 | -16.49156 | -41.52470 | 38787 ft | 483 kts | 264° |
| 2026-05-04 00:47 | -16.49514 | -41.55840 | 38911 ft | 453 kts | 264° |
| 2026-05-04 00:47 | -16.49850 | -41.59006 | 38998 ft | 428 kts | 264° |
| 2026-05-04 00:48 | -16.50170 | -41.62038 | 39082 ft | 417 kts | 264° |
| 2026-05-04 00:48 | -16.50488 | -41.65053 | 39264 ft | 418 kts | 264° |
| 2026-05-04 00:48 | -16.50804 | -41.68036 | 39543 ft | 410 kts | 264° |
| 2026-05-04 00:48 | -16.51113 | -41.70966 | 39817 ft | 403 kts | 264° |
| 2026-05-04 00:49 | -16.51416 | -41.73852 | 40079 ft | 399 kts | 264° |
| 2026-05-04 00:49 | -16.52031 | -41.79713 | 40113 ft | 416 kts | 264° |
| 2026-05-04 00:50 | -16.52671 | -41.85815 | 40122 ft | 431 kts | 264° |
| 2026-05-04 00:50 | -16.53326 | -41.92097 | 40121 ft | 446 kts | 264° |
| 2026-05-04 00:51 | -16.54003 | -41.98589 | 40127 ft | 452 kts | 264° |
| 2026-05-04 00:51 | -16.54677 | -42.05080 | 40119 ft | 448 kts | 264° |
| 2026-05-04 00:52 | -16.55342 | -42.11510 | 40108 ft | 444 kts | 264° |
| 2026-05-04 00:52 | -16.55999 | -42.17874 | 39912 ft | 438 kts | 264° |
| 2026-05-04 00:52 | -16.56322 | -42.21017 | 39786 ft | 435 kts | 264° |
| 2026-05-04 00:53 | -16.56646 | -42.24173 | 39244 ft | 441 kts | 264° |
| 2026-05-04 00:53 | -16.56974 | -42.27365 | 38645 ft | 444 kts | 264° |
| 2026-05-04 00:53 | -16.57302 | -42.30560 | 38041 ft | 442 kts | 264° |
| 2026-05-04 00:53 | -16.57627 | -42.33737 | 37456 ft | 440 kts | 264° |
| 2026-05-04 00:54 | -16.57950 | -42.36900 | 36883 ft | 438 kts | 264° |
| 2026-05-04 00:54 | -16.58262 | -42.40066 | 36305 ft | 440 kts | 265° |
| 2026-05-04 00:54 | -16.58324 | -42.43259 | 35730 ft | 444 kts | 270° |
| 2026-05-04 00:54 | -16.58334 | -42.46506 | 35140 ft | 450 kts | 269° |
| 2026-05-04 00:55 | -16.58367 | -42.49776 | 34544 ft | 454 kts | 269° |
| 2026-05-04 00:55 | -16.58397 | -42.53083 | 33917 ft | 457 kts | 269° |
| 2026-05-04 00:55 | -16.58412 | -42.56395 | 33305 ft | 457 kts | 270° |
| 2026-05-04 00:55 | -16.58427 | -42.59706 | 32702 ft | 457 kts | 270° |
| 2026-05-04 00:56 | -16.58449 | -42.63032 | 32101 ft | 461 kts | 270° |
| 2026-05-04 00:56 | -16.58471 | -42.66344 | 31500 ft | 466 kts | 270° |
| 2026-05-04 00:56 | -16.58489 | -42.69743 | 30883 ft | 472 kts | 270° |
| 2026-05-04 00:56 | -16.58506 | -42.73181 | 30259 ft | 476 kts | 270° |
| 2026-05-04 00:57 | -16.58524 | -42.76639 | 29587 ft | 477 kts | 270° |
| 2026-05-04 00:57 | -16.58543 | -42.80095 | 28959 ft | 476 kts | 270° |
| 2026-05-04 00:57 | -16.58560 | -42.83552 | 28330 ft | 478 kts | 270° |
| 2026-05-04 00:57 | -16.58576 | -42.87014 | 27703 ft | 477 kts | 270° |
| 2026-05-04 00:58 | -16.58592 | -42.90459 | 27074 ft | 471 kts | 270° |
| 2026-05-04 00:58 | -16.58607 | -42.93855 | 26457 ft | 465 kts | 270° |
| 2026-05-04 00:58 | -16.58623 | -42.97210 | 25847 ft | 460 kts | 270° |
| 2026-05-04 00:58 | -16.58636 | -43.00524 | 25245 ft | 456 kts | 270° |
| 2026-05-04 00:59 | -16.58648 | -43.03819 | 24637 ft | 453 kts | 270° |
| 2026-05-04 00:59 | -16.58661 | -43.07094 | 24051 ft | 450 kts | 270° |
| 2026-05-04 00:59 | -16.58673 | -43.10359 | 23419 ft | 448 kts | 270° |
| 2026-05-04 00:59 | -16.58685 | -43.13595 | 22829 ft | 444 kts | 270° |
| 2026-05-04 01:00 | -16.58695 | -43.16804 | 22245 ft | 441 kts | 270° |
| 2026-05-04 01:00 | -16.58705 | -43.19989 | 21663 ft | 438 kts | 270° |
| 2026-05-04 01:00 | -16.58715 | -43.23152 | 21089 ft | 435 kts | 270° |
| 2026-05-04 01:00 | -16.58724 | -43.26300 | 20515 ft | 433 kts | 270° |
| 2026-05-04 01:01 | -16.58733 | -43.29436 | 19940 ft | 432 kts | 270° |
| 2026-05-04 01:01 | -16.58741 | -43.32515 | 19379 ft | 429 kts | 269° |
| 2026-05-04 01:01 | -16.58748 | -43.35597 | 18811 ft | 425 kts | 269° |
| 2026-05-04 01:01 | -16.58755 | -43.38667 | 18231 ft | 422 kts | 269° |
| 2026-05-04 01:02 | -16.58762 | -43.41708 | 17659 ft | 417 kts | 269° |
| 2026-05-04 01:02 | -16.58768 | -43.44720 | 17110 ft | 414 kts | 269° |
| 2026-05-04 01:02 | -16.58773 | -43.47681 | 16573 ft | 403 kts | 270° |
| 2026-05-04 01:02 | -16.58778 | -43.50542 | 16057 ft | 384 kts | 269° |
| 2026-05-04 01:03 | -16.58782 | -43.53252 | 15565 ft | 365 kts | 269° |
| 2026-05-04 01:03 | -16.58786 | -43.55836 | 15098 ft | 350 kts | 270° |
| 2026-05-04 01:03 | -16.58790 | -43.58325 | 14650 ft | 337 kts | 270° |
| 2026-05-04 01:03 | -16.58793 | -43.60733 | 14215 ft | 327 kts | 270° |
| 2026-05-04 01:04 | -16.58796 | -43.63075 | 13780 ft | 319 kts | 270° |
| 2026-05-04 01:04 | -16.58797 | -43.65354 | 13351 ft | 311 kts | 270° |
| 2026-05-04 01:04 | -16.58800 | -43.67582 | 12944 ft | 303 kts | 270° |
| 2026-05-04 01:04 | -16.58801 | -43.69758 | 12551 ft | 298 kts | 270° |
| 2026-05-04 01:05 | -16.58803 | -43.71907 | 12162 ft | 296 kts | 270° |
| 2026-05-04 01:05 | -16.58804 | -43.74051 | 11777 ft | 296 kts | 270° |
| 2026-05-04 01:05 | -16.58805 | -43.76201 | 11388 ft | 296 kts | 270° |
| 2026-05-04 01:05 | -16.58806 | -43.78349 | 10999 ft | 296 kts | 270° |
| 2026-05-04 01:06 | -16.58806 | -43.80486 | 10611 ft | 295 kts | 270° |
| 2026-05-04 01:06 | -16.58807 | -43.82615 | 10222 ft | 292 kts | 270° |
| 2026-05-04 01:06 | -16.58807 | -43.84721 | 9822 ft | 289 kts | 270° |
| 2026-05-04 01:06 | -16.58807 | -43.86808 | 9429 ft | 287 kts | 270° |
| 2026-05-04 01:07 | -16.58807 | -43.88890 | 8955 ft | 288 kts | 270° |
| 2026-05-04 01:07 | -16.58807 | -43.90971 | 8550 ft | 287 kts | 270° |
| 2026-05-04 01:07 | -16.58806 | -43.93045 | 8169 ft | 285 kts | 270° |
| 2026-05-04 01:07 | -16.58805 | -43.95107 | 7787 ft | 281 kts | 270° |
| 2026-05-04 01:08 | -16.58947 | -43.97084 | 7404 ft | 260 kts | 254° |
| 2026-05-04 01:08 | -16.59648 | -43.98703 | 7087 ft | 244 kts | 234° |
| 2026-05-04 01:08 | -16.60782 | -43.99983 | 6780 ft | 238 kts | 214° |
| 2026-05-04 01:08 | -16.62205 | -44.00797 | 6471 ft | 230 kts | 195° |
| 2026-05-04 01:09 | -16.63722 | -44.01103 | 6164 ft | 222 kts | 177° |
| 2026-05-04 01:09 | -16.65224 | -44.00932 | 5874 ft | 214 kts | 160° |
| 2026-05-04 01:09 | -16.66567 | -44.00340 | 5596 ft | 207 kts | 144° |
| 2026-05-04 01:09 | -16.67670 | -43.99406 | 5322 ft | 203 kts | 130° |
| 2026-05-04 01:10 | -16.68468 | -43.98223 | 5103 ft | 193 kts | 115° |
| 2026-05-04 01:10 | -16.68915 | -43.96959 | 4811 ft | 181 kts | 101° |
| 2026-05-04 01:10 | -16.69081 | -43.95687 | 4564 ft | 174 kts | 95° |
| 2026-05-04 01:10 | -16.69229 | -43.94437 | 4349 ft | 175 kts | 97° |
| 2026-05-04 01:11 | -16.69385 | -43.93172 | 4114 ft | 176 kts | 97° |
| 2026-05-04 01:11 | -16.69529 | -43.91945 | 3924 ft | 154 kts | 97° |
| 2026-05-04 01:11 | -16.69652 | -43.90904 | 3686 ft | 139 kts | 96° |
| 2026-05-04 01:11 | -16.69728 | -43.90249 | 3536 ft | 135 kts | 96° |
| 2026-05-04 01:12 | -16.69841 | -43.89281 | 3374 ft | 134 kts | 96° |
| 2026-05-04 01:12 | -16.69950 | -43.88330 | 3206 ft | 130 kts | 96° |
| 2026-05-04 01:12 | -16.70058 | -43.87396 | 3036 ft | 129 kts | 98° |
| 2026-05-04 01:12 | -16.70166 | -43.86475 | 2886 ft | 129 kts | 97° |
| 2026-05-04 01:13 | -16.70270 | -43.85557 | 2710 ft | 125 kts | 98° |
| 2026-05-04 01:13 | -16.70373 | -43.84679 | 2524 ft | 120 kts | 98° |
| 2026-05-04 01:13 | -16.70474 | -43.83821 | 2399 ft | 117 kts | 98° |
| 2026-05-04 01:13 | -16.70568 | -43.82994 | 2272 ft | 111 kts | 97° |
| 2026-05-04 01:14 | -16.70650 | -43.82289 | 2201 ft | 79 kts | 96° |
| 2026-05-04 01:14 | -16.70699 | -43.81858 | 2194 ft | 34 kts | 97° |
| 2026-05-04 01:14 | -16.70722 | -43.81794 | 2194 ft | 4 kts | 94° |
| 2026-05-04 01:14 | -16.70709 | -43.81791 | 2194 ft | 2 kts | 321° |
| 2026-05-04 01:15 | -16.70701 | -43.81842 | 2194 ft | 10 kts | 278° |
| 2026-05-04 01:15 | -16.70691 | -43.81924 | 2195 ft | 12 kts | 277° |
| 2026-05-04 01:15 | -16.70679 | -43.82014 | 2198 ft | 13 kts | 277° |
| 2026-05-04 01:15 | -16.70667 | -43.82076 | 2200 ft | 6 kts | 302° |
| 2026-05-04 01:16 | -16.70628 | -43.82096 | 2200 ft | 8 kts | 356° |
| 2026-05-04 01:16 | -16.70574 | -43.82092 | 2198 ft | 6 kts | 12° |
| 2026-05-04 01:16 | -16.70526 | -43.82084 | 2196 ft | 1 kts | 6° |